sensor_id;sensor_type;location;lat;lon;timestamp;pressure;altitude;pressure_sealevel;temperature;humidity
8140;BME280;4111;50.972;7.072;2023-02-03T00:01:45;102124.41;;;9.91;97.06
8140;BME280;4111;50.972;7.072;2023-02-03T00:04:12;102110.22;;;9.89;97.13
8140;BME280;4111;50.972;7.072;2023-02-03T00:06:39;102105.19;;;9.86;97.46
8140;BME280;4111;50.972;7.072;2023-02-03T00:09:05;102093.91;;;9.83;97.18
8140;BME280;4111;50.972;7.072;2023-02-03T00:11:32;102089.13;;;9.85;97.24
8140;BME280;4111;50.972;7.072;2023-02-03T00:13:58;102083.06;;;9.83;97.18
8140;BME280;4111;50.972;7.072;2023-02-03T00:16:25;102076.41;;;9.85;97.36
8140;BME280;4111;50.972;7.072;2023-02-03T00:18:51;102082.03;;;9.84;97.48
8140;BME280;4111;50.972;7.072;2023-02-03T00:21:18;102074.94;;;9.83;97.67
8140;BME280;4111;50.972;7.072;2023-02-03T00:23:45;102076.81;;;9.82;97.37
8140;BME280;4111;50.972;7.072;2023-02-03T00:26:13;102079.31;;;9.84;97.55
8140;BME280;4111;50.972;7.072;2023-02-03T00:28:40;102067.63;;;9.77;97.36
8140;BME280;4111;50.972;7.072;2023-02-03T00:31:19;102062.41;;;9.82;97.17
8140;BME280;4111;50.972;7.072;2023-02-03T00:33:47;102057.00;;;9.82;97.22
8140;BME280;4111;50.972;7.072;2023-02-03T00:36:18;102050.50;;;9.83;97.07
8140;BME280;4111;50.972;7.072;2023-02-03T00:38:44;102051.75;;;9.87;96.98
8140;BME280;4111;50.972;7.072;2023-02-03T00:41:11;102048.41;;;9.85;96.92
8140;BME280;4111;50.972;7.072;2023-02-03T00:43:37;102063.03;;;9.84;96.90
8140;BME280;4111;50.972;7.072;2023-02-03T00:46:03;102063.66;;;9.86;96.93
8140;BME280;4111;50.972;7.072;2023-02-03T00:48:30;102055.53;;;9.86;96.70
8140;BME280;4111;50.972;7.072;2023-02-03T00:50:56;102056.34;;;9.86;96.92
8140;BME280;4111;50.972;7.072;2023-02-03T00:53:23;102051.13;;;9.85;96.78
8140;BME280;4111;50.972;7.072;2023-02-03T00:55:49;102047.59;;;9.84;96.71
8140;BME280;4111;50.972;7.072;2023-02-03T00:58:17;102035.72;;;9.85;96.64
8140;BME280;4111;50.972;7.072;2023-02-03T01:00:44;102046.56;;;9.85;96.59
8140;BME280;4111;50.972;7.072;2023-02-03T01:03:10;102048.63;;;9.83;96.31
8140;BME280;4111;50.972;7.072;2023-02-03T01:05:37;102042.16;;;9.84;96.25
8140;BME280;4111;50.972;7.072;2023-02-03T01:08:03;102046.13;;;9.88;96.22
8140;BME280;4111;50.972;7.072;2023-02-03T01:10:30;102047.78;;;9.83;96.33
8140;BME280;4111;50.972;7.072;2023-02-03T01:12:56;102037.56;;;9.85;96.05
8140;BME280;4111;50.972;7.072;2023-02-03T01:15:23;102050.72;;;9.88;96.44
8140;BME280;4111;50.972;7.072;2023-02-03T01:17:49;102049.66;;;9.89;96.08
8140;BME280;4111;50.972;7.072;2023-02-03T01:20:16;102063.66;;;9.86;96.05
8140;BME280;4111;50.972;7.072;2023-02-03T01:22:42;102061.97;;;9.85;95.99
8140;BME280;4111;50.972;7.072;2023-02-03T01:25:09;102068.03;;;9.87;96.17
8140;BME280;4111;50.972;7.072;2023-02-03T01:27:35;102070.75;;;9.87;96.13
8140;BME280;4111;50.972;7.072;2023-02-03T01:30:02;102084.31;;;9.87;96.03
8140;BME280;4111;50.972;7.072;2023-02-03T01:32:29;102080.13;;;9.91;95.94
8140;BME280;4111;50.972;7.072;2023-02-03T01:34:55;102091.41;;;9.88;96.14
8140;BME280;4111;50.972;7.072;2023-02-03T01:37:22;102089.34;;;9.90;95.82
8140;BME280;4111;50.972;7.072;2023-02-03T01:39:48;102085.16;;;9.94;96.05
8140;BME280;4111;50.972;7.072;2023-02-03T01:42:15;102084.34;;;9.93;95.83
8140;BME280;4111;50.972;7.072;2023-02-03T01:44:43;102088.91;;;9.93;95.92
8140;BME280;4111;50.972;7.072;2023-02-03T01:52:23;102096.84;;;9.95;95.64
8140;BME280;4111;50.972;7.072;2023-02-03T01:54:51;102090.16;;;9.97;95.64
8140;BME280;4111;50.972;7.072;2023-02-03T01:57:30;102097.66;;;9.95;95.54
8140;BME280;4111;50.972;7.072;2023-02-03T01:59:59;102090.16;;;9.97;95.69
8140;BME280;4111;50.972;7.072;2023-02-03T02:02:26;102099.78;;;10.00;95.65
8140;BME280;4111;50.972;7.072;2023-02-03T02:07:32;102097.66;;;9.95;95.66
8140;BME280;4111;50.972;7.072;2023-02-03T02:09:59;102090.16;;;9.97;95.67
8140;BME280;4111;50.972;7.072;2023-02-03T02:12:26;102081.38;;;9.95;95.37
8140;BME280;4111;50.972;7.072;2023-02-03T02:14:53;102073.69;;;9.92;95.35
8140;BME280;4111;50.972;7.072;2023-02-03T02:17:32;102074.72;;;9.91;95.09
8140;BME280;4111;50.972;7.072;2023-02-03T02:20:28;102087.66;;;9.96;95.19
8140;BME280;4111;50.972;7.072;2023-02-03T02:39:30;102064.28;;;10.01;94.64
8140;BME280;4111;50.972;7.072;2023-02-03T02:42:05;102052.59;;;10.01;94.63
8140;BME280;4111;50.972;7.072;2023-02-03T02:44:38;102048.41;;;10.05;94.49
8140;BME280;4111;50.972;7.072;2023-02-03T02:47:16;102047.78;;;10.03;94.29
8140;BME280;4111;50.972;7.072;2023-02-03T02:52:22;102051.75;;;10.00;93.88
8140;BME280;4111;50.972;7.072;2023-02-03T02:54:52;102032.13;;;9.98;93.97
8140;BME280;4111;50.972;7.072;2023-02-03T02:57:22;102041.31;;;9.97;94.07
8140;BME280;4111;50.972;7.072;2023-02-03T02:59:52;102043.41;;;9.95;93.87
8140;BME280;4111;50.972;7.072;2023-02-03T03:02:18;102051.53;;;9.95;93.90
8140;BME280;4111;50.972;7.072;2023-02-03T03:04:47;102053.22;;;9.96;93.93
8140;BME280;4111;50.972;7.072;2023-02-03T03:07:18;102050.94;;;10.00;93.91
8140;BME280;4111;50.972;7.072;2023-02-03T03:09:50;102054.25;;;9.95;93.85
8140;BME280;4111;50.972;7.072;2023-02-03T03:12:22;102049.88;;;9.94;94.05
8140;BME280;4111;50.972;7.072;2023-02-03T03:15:08;102051.78;;;9.93;94.09
8140;BME280;4111;50.972;7.072;2023-02-03T03:17:44;102057.19;;;9.93;94.29
8140;BME280;4111;50.972;7.072;2023-02-03T03:20:15;102052.59;;;9.94;94.46
8140;BME280;4111;50.972;7.072;2023-02-03T03:22:50;102037.97;;;9.95;94.04
8140;BME280;4111;50.972;7.072;2023-02-03T03:25:20;102029.00;;;9.95;94.34
8140;BME280;4111;50.972;7.072;2023-02-03T03:28:02;102030.69;;;9.96;94.26
8140;BME280;4111;50.972;7.072;2023-02-03T03:30:35;102026.50;;;9.93;94.43
8140;BME280;4111;50.972;7.072;2023-02-03T03:33:04;102024.84;;;9.92;94.31
8140;BME280;4111;50.972;7.072;2023-02-03T03:35:54;102046.72;;;9.97;94.21
8140;BME280;4111;50.972;7.072;2023-02-03T03:38:29;102048.00;;;9.95;94.36
8140;BME280;4111;50.972;7.072;2023-02-03T03:41:03;102055.53;;;9.99;94.27
8140;BME280;4111;50.972;7.072;2023-02-03T03:43:33;102036.53;;;9.99;93.91
8140;BME280;4111;50.972;7.072;2023-02-03T03:46:11;102038.81;;;10.02;94.05
8140;BME280;4111;50.972;7.072;2023-02-03T03:48:43;102052.16;;;9.97;93.67
8140;BME280;4111;50.972;7.072;2023-02-03T03:51:18;102044.69;;;9.99;93.89
8140;BME280;4111;50.972;7.072;2023-02-03T03:53:49;102043.00;;;9.98;93.81
8140;BME280;4111;50.972;7.072;2023-02-03T03:56:24;102026.09;;;9.96;93.55
8140;BME280;4111;50.972;7.072;2023-02-03T03:58:53;102033.81;;;9.99;93.40
8140;BME280;4111;50.972;7.072;2023-02-03T04:01:21;102028.38;;;9.99;93.57
8140;BME280;4111;50.972;7.072;2023-02-03T04:03:53;102028.81;;;9.96;93.40
8140;BME280;4111;50.972;7.072;2023-02-03T04:06:20;102030.88;;;9.94;93.70
8140;BME280;4111;50.972;7.072;2023-02-03T04:08:47;102045.28;;;10.01;93.49
8140;BME280;4111;50.972;7.072;2023-02-03T04:11:13;102046.72;;;9.97;93.36
8140;BME280;4111;50.972;7.072;2023-02-03T04:14:01;102046.72;;;9.97;93.38
8140;BME280;4111;50.972;7.072;2023-02-03T04:16:27;102035.88;;;9.97;93.48
8140;BME280;4111;50.972;7.072;2023-02-03T04:18:54;102039.25;;;9.99;93.09
8140;BME280;4111;50.972;7.072;2023-02-03T04:21:20;102025.47;;;9.94;93.10
8140;BME280;4111;50.972;7.072;2023-02-03T04:23:47;102015.44;;;9.95;93.04
8140;BME280;4111;50.972;7.072;2023-02-03T04:26:13;102026.31;;;10.01;93.27
8140;BME280;4111;50.972;7.072;2023-02-03T04:28:40;102029.63;;;10.03;93.19
8140;BME280;4111;50.972;7.072;2023-02-03T04:31:06;102026.94;;;10.03;92.91
8140;BME280;4111;50.972;7.072;2023-02-03T04:33:33;102032.13;;;9.98;92.82
8140;BME280;4111;50.972;7.072;2023-02-03T04:35:59;102038.81;;;10.02;93.06
8140;BME280;4111;50.972;7.072;2023-02-03T04:38:26;102030.03;;;10.00;92.83
8140;BME280;4111;50.972;7.072;2023-02-03T04:40:52;102029.84;;;10.02;92.70
8140;BME280;4111;50.972;7.072;2023-02-03T04:43:19;102020.88;;;10.01;92.33
8140;BME280;4111;50.972;7.072;2023-02-03T04:45:45;102023.59;;;10.01;92.69
8140;BME280;4111;50.972;7.072;2023-02-03T04:48:12;102021.69;;;9.95;92.34
8140;BME280;4111;50.972;7.072;2023-02-03T04:50:38;102034.44;;;9.95;92.45
8140;BME280;4111;50.972;7.072;2023-02-03T04:53:05;102026.09;;;9.96;92.65
8140;BME280;4111;50.972;7.072;2023-02-03T04:55:31;102027.75;;;9.97;92.36
8140;BME280;4111;50.972;7.072;2023-02-03T04:57:59;102019.59;;;9.97;92.43
8140;BME280;4111;50.972;7.072;2023-02-03T05:00:27;102017.53;;;9.99;92.52
8140;BME280;4111;50.972;7.072;2023-02-03T05:02:54;102027.53;;;10.05;92.48
8140;BME280;4111;50.972;7.072;2023-02-03T05:05:21;102014.59;;;10.01;92.32
8140;BME280;4111;50.972;7.072;2023-02-03T05:07:48;102026.31;;;10.01;92.57
8140;BME280;4111;50.972;7.072;2023-02-03T05:10:14;102029.00;;;10.01;92.09
8140;BME280;4111;50.972;7.072;2023-02-03T05:12:41;102015.00;;;10.04;91.74
8140;BME280;4111;50.972;7.072;2023-02-03T05:15:07;102016.69;;;9.99;92.10
8140;BME280;4111;50.972;7.072;2023-02-03T05:17:34;102011.25;;;9.99;92.28
8140;BME280;4111;50.972;7.072;2023-02-03T05:20:04;102005.63;;;10.00;91.89
8140;BME280;4111;50.972;7.072;2023-02-03T05:22:31;101983.69;;;9.95;92.12
8140;BME280;4111;50.972;7.072;2023-02-03T05:24:57;101999.97;;;9.95;92.41
8140;BME280;4111;50.972;7.072;2023-02-03T05:27:24;101995.84;;;9.99;92.28
8140;BME280;4111;50.972;7.072;2023-02-03T05:29:50;101995.19;;;9.97;92.34
8140;BME280;4111;50.972;7.072;2023-02-03T05:32:17;101994.56;;;9.95;92.28
8140;BME280;4111;50.972;7.072;2023-02-03T05:34:44;101999.56;;;9.98;92.59
8140;BME280;4111;50.972;7.072;2023-02-03T05:37:10;101984.97;;;9.99;92.40
8140;BME280;4111;50.972;7.072;2023-02-03T05:39:36;101984.97;;;9.99;92.38
8140;BME280;4111;50.972;7.072;2023-02-03T05:42:03;102000.59;;;9.97;92.52
8140;BME280;4111;50.972;7.072;2023-02-03T05:44:30;101996.88;;;9.98;92.32
8140;BME280;4111;50.972;7.072;2023-02-03T05:46:58;102002.28;;;9.98;92.52
8140;BME280;4111;50.972;7.072;2023-02-03T05:49:25;101999.56;;;9.98;92.42
8140;BME280;4111;50.972;7.072;2023-02-03T05:51:54;102009.16;;;10.01;92.49
8140;BME280;4111;50.972;7.072;2023-02-03T05:54:21;102009.16;;;10.01;92.25
8140;BME280;4111;50.972;7.072;2023-02-03T05:56:47;102001.84;;;10.08;92.19
8140;BME280;4111;50.972;7.072;2023-02-03T05:59:14;102005.00;;;9.98;92.18
8140;BME280;4111;50.972;7.072;2023-02-03T06:01:40;102001.25;;;9.99;92.13
8140;BME280;4111;50.972;7.072;2023-02-03T06:04:07;102006.25;;;10.02;92.26
8140;BME280;4111;50.972;7.072;2023-02-03T06:06:34;102012.50;;;10.03;92.21
8140;BME280;4111;50.972;7.072;2023-02-03T06:09:02;102017.13;;;9.96;91.79
8140;BME280;4111;50.972;7.072;2023-02-03T06:11:29;102015.03;;;9.98;92.07
8140;BME280;4111;50.972;7.072;2023-02-03T06:13:56;102014.16;;;9.97;91.88
8140;BME280;4111;50.972;7.072;2023-02-03T06:16:25;102029.00;;;10.01;91.68
8140;BME280;4111;50.972;7.072;2023-02-03T06:18:53;102019.59;;;10.04;91.88
8140;BME280;4111;50.972;7.072;2023-02-03T06:21:20;102032.13;;;10.05;91.60
8140;BME280;4111;50.972;7.072;2023-02-03T06:23:47;102024.63;;;10.00;91.39
8140;BME280;4111;50.972;7.072;2023-02-03T06:26:14;102038.81;;;10.02;91.46
8140;BME280;4111;50.972;7.072;2023-02-03T06:28:40;102013.75;;;10.00;91.20
8140;BME280;4111;50.972;7.072;2023-02-03T06:31:07;102013.75;;;10.00;91.53
8140;BME280;4111;50.972;7.072;2023-02-03T06:33:33;102021.47;;;10.10;91.88
8140;BME280;4111;50.972;7.072;2023-02-03T06:36:00;102022.50;;;10.16;91.44
8140;BME280;4111;50.972;7.072;2023-02-03T06:38:26;102016.25;;;10.08;91.02
8140;BME280;4111;50.972;7.072;2023-02-03T06:40:53;102026.28;;;10.08;90.58
8140;BME280;4111;50.972;7.072;2023-02-03T06:43:19;102026.06;;;10.09;90.80
8140;BME280;4111;50.972;7.072;2023-02-03T06:45:46;102030.44;;;10.10;90.78
8140;BME280;4111;50.972;7.072;2023-02-03T06:48:13;102037.97;;;10.08;90.48
8140;BME280;4111;50.972;7.072;2023-02-03T06:50:40;102028.78;;;10.09;90.34
8140;BME280;4111;50.972;7.072;2023-02-03T06:53:07;102028.78;;;10.09;90.68
8140;BME280;4111;50.972;7.072;2023-02-03T06:55:34;102031.72;;;10.08;90.42
8140;BME280;4111;50.972;7.072;2023-02-03T06:58:00;102024.16;;;10.17;90.90
8140;BME280;4111;50.972;7.072;2023-02-03T07:00:27;102025.00;;;10.24;91.11
8140;BME280;4111;50.972;7.072;2023-02-03T07:02:55;102027.69;;;10.24;90.60
8140;BME280;4111;50.972;7.072;2023-02-03T07:05:23;102026.25;;;10.15;90.42
8140;BME280;4111;50.972;7.072;2023-02-03T07:07:50;102030.03;;;10.13;90.29
8140;BME280;4111;50.972;7.072;2023-02-03T07:10:17;102030.22;;;10.12;90.13
8140;BME280;4111;50.972;7.072;2023-02-03T07:12:43;102027.09;;;10.15;90.19
8140;BME280;4111;50.972;7.072;2023-02-03T07:15:11;102036.06;;;10.16;90.21
8140;BME280;4111;50.972;7.072;2023-02-03T07:17:38;102025.84;;;10.11;90.42
8140;BME280;4111;50.972;7.072;2023-02-03T07:20:04;102028.16;;;10.07;90.18
8140;BME280;4111;50.972;7.072;2023-02-03T07:22:31;102028.56;;;10.11;90.33
8140;BME280;4111;50.972;7.072;2023-02-03T07:24:57;102019.59;;;10.10;90.11
8140;BME280;4111;50.972;7.072;2023-02-03T07:27:25;102028.78;;;10.09;90.38
8140;BME280;4111;50.972;7.072;2023-02-03T07:29:53;102033.38;;;10.16;90.34
8140;BME280;4111;50.972;7.072;2023-02-03T07:32:19;102038.78;;;10.16;90.13
8140;BME280;4111;50.972;7.072;2023-02-03T07:34:46;102039.81;;;10.15;90.26
8140;BME280;4111;50.972;7.072;2023-02-03T07:37:12;102028.34;;;10.12;90.33
8140;BME280;4111;50.972;7.072;2023-02-03T07:39:39;102041.28;;;10.10;90.16
8140;BME280;4111;50.972;7.072;2023-02-03T07:42:05;102036.28;;;10.14;90.25
8140;BME280;4111;50.972;7.072;2023-02-03T07:44:32;102031.06;;;10.12;90.27
8140;BME280;4111;50.972;7.072;2023-02-03T07:46:58;102029.38;;;10.18;90.33
8140;BME280;4111;50.972;7.072;2023-02-03T07:49:25;102030.00;;;10.20;90.26
8140;BME280;4111;50.972;7.072;2023-02-03T07:51:51;102032.91;;;10.19;89.96
8140;BME280;4111;50.972;7.072;2023-02-03T07:54:18;102038.16;;;10.20;90.06
8140;BME280;4111;50.972;7.072;2023-02-03T07:56:44;102033.16;;;10.10;90.02
8140;BME280;4111;50.972;7.072;2023-02-03T07:59:10;102045.69;;;10.11;90.20
8140;BME280;4111;50.972;7.072;2023-02-03T08:01:37;102042.53;;;10.15;89.91
8140;BME280;4111;50.972;7.072;2023-02-03T08:04:04;102035.88;;;10.17;89.79
8140;BME280;4111;50.972;7.072;2023-02-03T08:06:31;102036.69;;;10.18;89.76
8140;BME280;4111;50.972;7.072;2023-02-03T08:08:58;102036.28;;;10.14;89.48
8140;BME280;4111;50.972;7.072;2023-02-03T08:11:24;102044.00;;;10.10;89.62
8140;BME280;4111;50.972;7.072;2023-02-03T08:13:51;102058.81;;;10.15;89.60
8140;BME280;4111;50.972;7.072;2023-02-03T08:16:18;102052.38;;;10.16;89.59
8140;BME280;4111;50.972;7.072;2023-02-03T08:18:44;102048.38;;;10.18;89.30
8140;BME280;4111;50.972;7.072;2023-02-03T08:21:10;102045.88;;;10.17;89.42
8140;BME280;4111;50.972;7.072;2023-02-03T08:23:37;102041.06;;;10.19;89.12
8140;BME280;4111;50.972;7.072;2023-02-03T08:26:04;102038.34;;;10.19;89.02
8140;BME280;4111;50.972;7.072;2023-02-03T08:28:30;102057.97;;;10.21;88.68
8140;BME280;4111;50.972;7.072;2023-02-03T08:30:57;102060.94;;;10.19;88.83
8140;BME280;4111;50.972;7.072;2023-02-03T08:33:23;102059.44;;;10.23;88.94
8140;BME280;4111;50.972;7.072;2023-02-03T08:35:50;102076.56;;;10.24;88.75
8140;BME280;4111;50.972;7.072;2023-02-03T08:38:17;102073.22;;;10.22;88.74
8140;BME280;4111;50.972;7.072;2023-02-03T08:40:43;102082.63;;;10.26;88.91
8140;BME280;4111;50.972;7.072;2023-02-03T08:43:09;102078.25;;;10.25;89.17
8140;BME280;4111;50.972;7.072;2023-02-03T08:45:38;102076.56;;;10.24;89.07
8140;BME280;4111;50.972;7.072;2023-02-03T08:48:05;102088.91;;;10.20;89.91
8140;BME280;4111;50.972;7.072;2023-02-03T08:50:32;102082.22;;;10.16;90.08
8140;BME280;4111;50.972;7.072;2023-02-03T08:52:58;102082.22;;;10.16;90.56
8140;BME280;4111;50.972;7.072;2023-02-03T08:55:25;102094.75;;;10.10;90.59
8140;BME280;4111;50.972;7.072;2023-02-03T08:57:51;102076.16;;;10.13;90.91
8140;BME280;4111;50.972;7.072;2023-02-03T09:00:18;102062.78;;;10.19;91.18
8140;BME280;4111;50.972;7.072;2023-02-03T09:02:45;102069.25;;;10.11;91.30
8140;BME280;4111;50.972;7.072;2023-02-03T09:05:11;102072.63;;;10.13;91.19
8140;BME280;4111;50.972;7.072;2023-02-03T09:07:38;102083.47;;;10.13;91.29
8140;BME280;4111;50.972;7.072;2023-02-03T09:10:05;102093.06;;;10.16;91.42
8140;BME280;4111;50.972;7.072;2023-02-03T09:12:31;102078.06;;;10.13;91.03
8140;BME280;4111;50.972;7.072;2023-02-03T09:14:58;102091.84;;;10.11;91.27
8140;BME280;4111;50.972;7.072;2023-02-03T09:17:24;102077.19;;;10.12;91.42
8140;BME280;4111;50.972;7.072;2023-02-03T09:19:51;102075.09;;;10.15;91.33
8140;BME280;4111;50.972;7.072;2023-02-03T09:22:17;102081.16;;;10.17;91.68
8140;BME280;4111;50.972;7.072;2023-02-03T09:24:44;102074.28;;;10.14;91.17
8140;BME280;4111;50.972;7.072;2023-02-03T09:27:10;102080.53;;;10.15;91.56
8140;BME280;4111;50.972;7.072;2023-02-03T09:29:37;102065.50;;;10.12;91.51
8140;BME280;4111;50.972;7.072;2023-02-03T09:32:03;102073.44;;;10.13;91.72
8140;BME280;4111;50.972;7.072;2023-02-03T09:34:34;102093.50;;;10.12;91.85
8140;BME280;4111;50.972;7.072;2023-02-03T09:37:00;102079.91;;;10.12;92.04
8140;BME280;4111;50.972;7.072;2023-02-03T09:39:27;102080.13;;;10.11;92.18
8140;BME280;4111;50.972;7.072;2023-02-03T09:44:43;102061.13;;;10.11;92.73
8140;BME280;4111;50.972;7.072;2023-02-03T09:47:21;102050.91;;;10.06;92.68
8140;BME280;4111;50.972;7.072;2023-02-03T09:49:58;102065.09;;;10.08;92.84
8140;BME280;4111;50.972;7.072;2023-02-03T09:52:30;102060.50;;;10.09;93.18
8140;BME280;4111;50.972;7.072;2023-02-03T09:55:03;102058.63;;;10.09;93.27
8140;BME280;4111;50.972;7.072;2023-02-03T09:57:36;102073.88;;;10.10;93.34
8140;BME280;4111;50.972;7.072;2023-02-03T10:00:30;102057.56;;;10.10;93.42
8140;BME280;4111;50.972;7.072;2023-02-03T10:05:55;102073.06;;;10.03;94.02
8140;BME280;4111;50.972;7.072;2023-02-03T10:11:21;102069.28;;;10.04;94.55
8140;BME280;4111;50.972;7.072;2023-02-03T10:14:12;102084.31;;;10.00;94.97
8140;BME280;4111;50.972;7.072;2023-02-03T10:19:57;102091.00;;;9.98;95.73
8140;BME280;4111;50.972;7.072;2023-02-03T10:22:28;102102.47;;;9.93;96.41
8140;BME280;4111;50.972;7.072;2023-02-03T10:24:59;102100.19;;;9.90;96.80
8140;BME280;4111;50.972;7.072;2023-02-03T10:27:27;102101.00;;;9.90;97.46
8140;BME280;4111;50.972;7.072;2023-02-03T10:30:02;102090.38;;;9.89;97.77
8140;BME280;4111;50.972;7.072;2023-02-03T10:32:29;102095.59;;;9.90;98.19
8140;BME280;4111;50.972;7.072;2023-02-03T10:34:56;102097.69;;;9.88;98.71
8140;BME280;4111;50.972;7.072;2023-02-03T10:37:29;102094.97;;;9.82;99.12
8140;BME280;4111;50.972;7.072;2023-02-03T10:39:58;102074.72;;;9.84;99.54
8140;BME280;4111;50.972;7.072;2023-02-03T10:42:27;102084.75;;;9.84;99.86
8140;BME280;4111;50.972;7.072;2023-02-03T10:45:14;102086.84;;;9.82;100.00
8140;BME280;4111;50.972;7.072;2023-02-03T10:47:44;102089.13;;;9.85;100.00
8140;BME280;4111;50.972;7.072;2023-02-03T10:50:23;102083.06;;;9.83;100.00
8140;BME280;4111;50.972;7.072;2023-02-03T10:52:49;102075.56;;;9.85;100.00
8140;BME280;4111;50.972;7.072;2023-02-03T10:57:52;102072.22;;;9.76;100.00
8140;BME280;4111;50.972;7.072;2023-02-03T11:00:27;102069.28;;;9.71;100.00
8140;BME280;4111;50.972;7.072;2023-02-03T11:03:04;102092.03;;;9.70;100.00
8140;BME280;4111;50.972;7.072;2023-02-03T11:05:32;102083.91;;;9.70;100.00
8140;BME280;4111;50.972;7.072;2023-02-03T11:07:58;102086.00;;;9.75;100.00
8140;BME280;4111;50.972;7.072;2023-02-03T11:10:35;102083.50;;;9.80;100.00
8140;BME280;4111;50.972;7.072;2023-02-03T11:13:15;102083.69;;;9.78;100.00
8140;BME280;4111;50.972;7.072;2023-02-03T11:21:16;102070.13;;;9.78;100.00
8140;BME280;4111;50.972;7.072;2023-02-03T11:23:47;102058.44;;;9.84;100.00
8140;BME280;4111;50.972;7.072;2023-02-03T11:26:18;102062.19;;;9.83;100.00
8140;BME280;4111;50.972;7.072;2023-02-03T11:28:48;102058.84;;;9.75;100.00
8140;BME280;4111;50.972;7.072;2023-02-03T11:31:17;102052.59;;;9.81;100.00
8140;BME280;4111;50.972;7.072;2023-02-03T11:33:47;102055.53;;;9.86;100.00
8140;BME280;4111;50.972;7.072;2023-02-03T11:36:16;102057.59;;;9.90;100.00
8140;BME280;4111;50.972;7.072;2023-02-03T11:38:43;102054.66;;;9.99;100.00
8140;BME280;4111;50.972;7.072;2023-02-03T11:41:15;102060.97;;;9.99;100.00
8140;BME280;4111;50.972;7.072;2023-02-03T11:43:42;102066.38;;;9.99;100.00
8140;BME280;4111;50.972;7.072;2023-02-03T11:46:09;102081.59;;;10.00;100.00
8140;BME280;4111;50.972;7.072;2023-02-03T11:48:59;102086.00;;;10.01;100.00
8140;BME280;4111;50.972;7.072;2023-02-03T11:51:59;102083.91;;;10.03;100.00
8140;BME280;4111;50.972;7.072;2023-02-03T11:54:52;102074.72;;;10.04;100.00
8140;BME280;4111;50.972;7.072;2023-02-03T11:57:33;102083.47;;;10.06;100.00
8140;BME280;4111;50.972;7.072;2023-02-03T12:10:43;102077.41;;;10.04;100.00
8140;BME280;4111;50.972;7.072;2023-02-03T12:16:24;102072.22;;;10.09;100.00
8140;BME280;4111;50.972;7.072;2023-02-03T12:19:09;102071.16;;;10.10;100.00
8140;BME280;4111;50.972;7.072;2023-02-03T12:21:49;102075.53;;;10.11;100.00
8140;BME280;4111;50.972;7.072;2023-02-03T12:27:55;102058.59;;;10.23;100.00
8140;BME280;4111;50.972;7.072;2023-02-03T12:30:40;102074.88;;;10.23;100.00
8140;BME280;4111;50.972;7.072;2023-02-03T12:33:18;102063.84;;;10.18;100.00
8140;BME280;4111;50.972;7.072;2023-02-03T12:35:55;102059.66;;;10.22;100.00
8140;BME280;4111;50.972;7.072;2023-02-03T12:38:34;102058.38;;;10.24;100.00
8140;BME280;4111;50.972;7.072;2023-02-03T12:41:15;102055.25;;;10.27;100.00
8140;BME280;4111;50.972;7.072;2023-02-03T12:43:48;102070.13;;;10.31;100.00
8140;BME280;4111;50.972;7.072;2023-02-03T12:46:38;102072.63;;;10.33;100.00
8140;BME280;4111;50.972;7.072;2023-02-03T12:49:12;102077.19;;;10.32;100.00
8140;BME280;4111;50.972;7.072;2023-02-03T12:51:51;102075.09;;;10.35;100.00
8140;BME280;4111;50.972;7.072;2023-02-03T12:57:20;102055.28;;;10.34;100.00
8140;BME280;4111;50.972;7.072;2023-02-03T13:00:00;102066.34;;;10.32;100.00
8140;BME280;4111;50.972;7.072;2023-02-03T13:02:33;102062.16;;;10.37;100.00
8140;BME280;4111;50.972;7.072;2023-02-03T13:05:19;102055.47;;;10.39;100.00
8140;BME280;4111;50.972;7.072;2023-02-03T13:07:53;102071.78;;;10.39;100.00
8140;BME280;4111;50.972;7.072;2023-02-03T13:12:57;102063.81;;;10.38;100.00
8140;BME280;4111;50.972;7.072;2023-02-03T13:15:29;102060.91;;;10.39;100.00
8140;BME280;4111;50.972;7.072;2023-02-03T13:18:11;102060.91;;;10.39;100.00
8140;BME280;4111;50.972;7.072;2023-02-03T13:20:44;102073.00;;;10.43;100.00
8140;BME280;4111;50.972;7.072;2023-02-03T13:23:12;102066.34;;;10.39;100.00
8140;BME280;4111;50.972;7.072;2023-02-03T13:31:34;102061.75;;;10.33;100.00
8140;BME280;4111;50.972;7.072;2023-02-03T13:42:57;102063.84;;;10.18;100.00
8140;BME280;4111;50.972;7.072;2023-02-03T13:45:37;102064.66;;;10.18;100.00
8140;BME280;4111;50.972;7.072;2023-02-03T13:50:39;102067.59;;;10.23;100.00
8140;BME280;4111;50.972;7.072;2023-02-03T13:53:14;102075.91;;;10.28;100.00
8140;BME280;4111;50.972;7.072;2023-02-03T13:55:43;102065.31;;;10.27;100.00
8140;BME280;4111;50.972;7.072;2023-02-03T13:58:23;102074.72;;;10.31;100.00
8140;BME280;4111;50.972;7.072;2023-02-03T14:06:04;102040.22;;;10.38;100.00
8140;BME280;4111;50.972;7.072;2023-02-03T14:16:35;102067.13;;;10.53;100.00
8140;BME280;4111;50.972;7.072;2023-02-03T14:19:04;102070.25;;;10.57;100.00
8140;BME280;4111;50.972;7.072;2023-02-03T14:24:09;102085.69;;;10.63;100.00
8140;BME280;4111;50.972;7.072;2023-02-03T14:26:43;102084.63;;;10.64;100.00
8140;BME280;4111;50.972;7.072;2023-02-03T14:29:24;102091.94;;;10.70;100.00
8140;BME280;4111;50.972;7.072;2023-02-03T14:34:29;102082.31;;;10.74;100.00
8140;BME280;4111;50.972;7.072;2023-02-03T14:37:09;102087.53;;;10.76;100.00
8140;BME280;4111;50.972;7.072;2023-02-03T14:39:46;102091.31;;;10.75;100.00
8140;BME280;4111;50.972;7.072;2023-02-03T14:57:01;102065.69;;;10.96;98.69
8140;BME280;4111;50.972;7.072;2023-02-03T15:02:14;102090.16;;;10.96;98.29
8140;BME280;4111;50.972;7.072;2023-02-03T15:04:42;102075.75;;;10.95;97.97
8140;BME280;4111;50.972;7.072;2023-02-03T15:07:43;102076.16;;;10.99;97.94
8140;BME280;4111;50.972;7.072;2023-02-03T15:10:23;102083.69;;;10.97;97.98
8140;BME280;4111;50.972;7.072;2023-02-03T15:12:55;102095.84;;;10.94;97.93
8140;BME280;4111;50.972;7.072;2023-02-03T15:15:26;102088.91;;;10.98;98.06
8140;BME280;4111;50.972;7.072;2023-02-03T15:17:55;102097.06;;;10.91;97.74
8140;BME280;4111;50.972;7.072;2023-02-03T15:20:33;102092.88;;;10.96;97.83
8140;BME280;4111;50.972;7.072;2023-02-03T15:23:01;102099.16;;;10.96;97.67
8140;BME280;4111;50.972;7.072;2023-02-03T15:25:30;102108.81;;;10.92;97.54
8140;BME280;4111;50.972;7.072;2023-02-03T15:28:19;102116.34;;;10.90;97.58
8140;BME280;4111;50.972;7.072;2023-02-03T15:30:51;102102.50;;;10.91;97.68